Time;durP1;ratioP1;P1;durP2;ratioP2;P2;SDS_P1;SDS_P2;PMS_P1;PMS_P2;Temp;Humidity;BMP_temperature;BMP_pressure;BME280_temperature;BME280_humidity;BME280_pressure;Samples;Min_cycle;Max_cycle;Signal;HPM_P1;HPM_P2
2022/01/16 00:00:53;;;;;;;18.27;8.17;;;28.30;67.00;;;;;;5070734;28;20254;-79
2022/01/16 00:06:06;;;;;;;19.93;8.33;;;28.40;67.00;;;;;;5070438;28;20651;-78
2022/01/16 00:08:34;;;;;;;16.50;7.80;;;28.50;66.70;;;;;;5073866;28;20215;-84
2022/01/16 00:11:01;;;;;;;14.93;7.40;;;28.60;65.50;;;;;;5072159;28;20264;-78
2022/01/16 00:13:29;;;;;;;22.23;8.23;;;28.40;65.40;;;;;;5073026;28;20264;-76
2022/01/16 00:15:56;;;;;;;17.77;7.97;;;28.30;66.50;;;;;;5073343;28;21029;-78
2022/01/16 00:18:27;;;;;;;19.87;7.53;;;28.40;65.90;;;;;;5071608;28;20213;-78
2022/01/16 00:20:55;;;;;;;19.57;7.77;;;28.30;66.20;;;;;;5069919;28;20190;-77
2022/01/16 00:23:26;;;;;;;13.87;7.37;;;28.50;67.00;;;;;;5072736;28;20175;-76
2022/01/16 00:25:55;;;;;;;14.83;7.57;;;28.50;65.50;;;;;;5073595;28;20183;-81
2022/01/16 00:28:24;;;;;;;15.47;7.53;;;28.30;65.80;;;;;;5073138;28;20179;-78
2022/01/16 00:30:52;;;;;;;19.13;8.00;;;28.30;66.50;;;;;;5067305;28;20203;-77
2022/01/16 00:33:20;;;;;;;22.30;8.07;;;28.10;66.90;;;;;;5071879;28;20179;-79
2022/01/16 00:35:48;;;;;;;16.57;8.07;;;28.30;66.90;;;;;;5071640;28;20183;-78
2022/01/16 00:38:15;;;;;;;20.07;8.27;;;28.60;66.10;;;;;;5073002;28;20697;-78
2022/01/16 00:40:42;;;;;;;19.00;8.57;;;28.40;66.00;;;;;;5073601;28;20183;-79
2022/01/16 00:43:10;;;;;;;16.87;7.97;;;28.30;66.20;;;;;;5074125;28;20694;-78
2022/01/16 00:45:37;;;;;;;17.63;8.37;;;28.40;66.00;;;;;;5074630;28;20175;-80
2022/01/16 00:48:07;;;;;;;22.17;8.00;;;28.50;65.90;;;;;;5074962;28;20172;-78
2022/01/16 00:50:35;;;;;;;14.93;7.40;;;28.50;66.10;;;;;;5071204;28;20213;-78
2022/01/16 00:53:03;;;;;;;22.33;7.93;;;28.30;66.30;;;;;;5075146;28;20270;-74
2022/01/16 00:55:32;;;;;;;16.37;7.20;;;28.30;66.80;;;;;;5074754;28;20191;-78
2022/01/16 00:58:00;;;;;;;17.20;7.63;;;28.30;66.50;;;;;;5074622;28;20713;-78
2022/01/16 01:00:31;;;;;;;21.33;8.10;;;28.20;67.00;;;;;;5071501;28;20668;-80
2022/01/16 01:02:59;;;;;;;19.90;8.17;;;28.30;66.50;;;;;;5068683;28;20187;-78
2022/01/16 01:05:26;;;;;;;24.37;8.10;;;28.40;66.70;;;;;;5066263;28;20219;-80
2022/01/16 01:07:55;;;;;;;16.43;7.47;;;28.70;66.00;;;;;;5071097;28;20715;-81
2022/01/16 01:10:43;;;;;;;19.77;7.53;;;28.40;66.00;;;;;;5073699;28;20239;-79
2022/01/16 01:13:21;;;;;;;19.23;7.63;;;28.30;66.60;;;;;;5077024;28;20215;-81
2022/01/16 01:15:51;;;;;;;18.03;7.23;;;28.50;66.30;;;;;;5074342;28;20210;-78
2022/01/16 01:18:20;;;;;;;20.43;7.37;;;28.50;66.30;;;;;;5072276;28;20314;-84
2022/01/16 01:20:50;;;;;;;23.03;7.63;;;28.70;65.90;;;;;;5053665;28;20202;-77
2022/01/16 01:23:18;;;;;;;19.90;7.33;;;28.70;66.10;;;;;;5070727;28;20178;-78
2022/01/16 01:25:46;;;;;;;14.73;6.93;;;28.90;65.80;;;;;;5071319;28;20191;-81
2022/01/16 01:28:13;;;;;;;14.50;7.73;;;29.00;64.80;;;;;;5070510;28;20186;-76
2022/01/16 01:30:44;;;;;;;21.17;7.10;;;29.10;64.50;;;;;;5069787;28;20183;-75
2022/01/16 01:33:13;;;;;;;15.53;5.87;;;28.90;64.30;;;;;;5067642;28;20271;-75
2022/01/16 01:35:42;;;;;;;19.27;7.47;;;28.90;63.70;;;;;;5072388;28;20637;-73
2022/01/16 01:38:11;;;;;;;14.90;6.33;;;28.90;64.60;;;;;;5072470;28;20254;-78
2022/01/16 01:40:40;;;;;;;16.47;6.00;;;28.90;64.30;;;;;;5071255;28;20764;-79
2022/01/16 01:51:20;;;;;;;19.83;6.17;;;28.40;65.40;;;;;;5070874;28;20178;-73
2022/01/16 01:53:49;;;;;;;17.23;7.37;;;28.50;66.10;;;;;;5071402;28;20237;-80
2022/01/16 01:56:17;;;;;;;18.40;7.27;;;28.60;64.90;;;;;;5072643;28;20641;-76
2022/01/16 01:58:46;;;;;;;15.10;6.13;;;28.80;65.10;;;;;;5068418;28;20199;-74
2022/01/16 02:01:13;;;;;;;16.00;5.17;;;28.70;65.40;;;;;;5071253;28;20552;-77
2022/01/16 02:06:19;;;;;;;20.43;5.70;;;28.70;65.90;;;;;;5072188;28;20187;-75
2022/01/16 02:08:54;;;;;;;19.10;5.43;;;28.90;64.90;;;;;;5070259;28;20190;-76
2022/01/16 02:11:24;;;;;;;12.03;5.13;;;29.00;63.90;;;;;;5075553;28;20175;-76
2022/01/16 02:35:41;;;;;;;20.83;5.40;;;30.00;62.00;;;;;;5074810;28;20179;-81
2022/01/16 02:38:14;;;;;;;14.33;4.57;;;30.50;59.90;;;;;;5074183;28;20336;-79
2022/01/16 02:40:54;;;;;;;14.37;4.47;;;30.60;59.30;;;;;;5073441;28;20187;-76
2022/01/16 02:43:30;;;;;;;23.25;5.38;;;30.30;60.00;;;;;;5072829;28;20187;-74
2022/01/16 02:46:35;;;;;;;17.50;5.27;;;30.10;60.20;;;;;;5081153;28;20236;-76
2022/01/16 02:48:49;;;;;;;15.82;4.82;;;30.10;60.20;;;;;;5069781;28;20241;-75
2022/01/16 02:51:22;;;;;;;15.80;4.23;;;30.30;59.90;;;;;;5071721;28;20187;-73
2022/01/16 02:53:51;;;;;;;16.00;4.47;;;29.90;60.00;;;;;;5069646;28;20187;-77
2022/01/16 02:56:19;;;;;;;15.37;4.80;;;29.80;60.60;;;;;;5072548;28;20645;-84
2022/01/16 02:58:48;;;;;;;15.47;5.00;;;30.10;59.50;;;;;;5073037;28;20203;-73
2022/01/16 03:01:15;;;;;;;11.93;4.20;;;30.10;59.40;;;;;;5071524;28;20256;-75
2022/01/16 03:03:43;;;;;;;17.10;4.65;;;30.10;59.30;;;;;;5074196;28;20179;-73
2022/01/16 03:06:10;;;;;;;16.00;5.03;;;29.80;60.50;;;;;;5069130;28;20610;-79
2022/01/16 03:08:38;;;;;;;15.38;4.88;;;29.80;61.30;;;;;;5074198;28;20191;-80
2022/01/16 03:13:51;;;;;;;17.05;4.72;;;30.20;59.90;;;;;;5068342;28;20186;-75
2022/01/16 03:16:21;;;;;;;19.92;4.95;;;30.50;58.70;;;;;;5073155;28;20179;-75
2022/01/16 03:21:54;;;;;;;17.02;4.75;;;30.70;58.50;;;;;;5074159;28;20194;-77
2022/01/16 03:24:26;;;;;;;17.85;4.75;;;30.40;58.50;;;;;;5074327;28;20258;-75
2022/01/16 03:26:56;;;;;;;10.00;3.63;;;30.30;58.80;;;;;;5075828;28;20261;-77
2022/01/16 03:29:25;;;;;;;18.10;4.43;;;30.30;58.70;;;;;;5074313;28;20175;-73
2022/01/16 03:31:53;;;;;;;16.45;4.47;;;30.30;59.60;;;;;;5073598;28;20182;-73
2022/01/16 03:34:21;;;;;;;13.67;4.27;;;30.50;58.50;;;;;;5075026;28;20244;-76
2022/01/16 03:36:48;;;;;;;11.52;3.92;;;30.50;58.50;;;;;;5075223;28;20210;-75
2022/01/16 03:39:16;;;;;;;14.32;5.25;;;30.50;58.20;;;;;;5074258;28;20226;-82
2022/01/16 03:41:44;;;;;;;10.88;4.60;;;30.50;57.90;;;;;;5072521;28;20183;-74
2022/01/16 03:44:11;;;;;;;16.48;4.30;;;30.30;58.30;;;;;;5072309;28;20186;-77
2022/01/16 03:46:41;;;;;;;15.05;4.43;;;30.50;57.70;;;;;;5074895;28;20175;-80
2022/01/16 03:49:15;;;;;;;14.63;4.05;;;30.80;57.10;;;;;;5073524;28;20187;-76
2022/01/16 03:51:45;;;;;;;15.88;4.95;;;30.80;57.70;;;;;;5075342;28;20751;-81
2022/01/16 03:54:18;;;;;;;12.07;3.95;;;31.00;56.20;;;;;;5073730;28;20171;-75
2022/01/16 03:56:46;;;;;;;16.33;4.78;;;30.60;56.70;;;;;;5074626;28;20214;-76
2022/01/16 03:59:14;;;;;;;13.50;3.88;;;30.60;56.70;;;;;;5074761;28;20215;-76
2022/01/16 04:01:42;;;;;;;16.20;3.65;;;30.70;56.50;;;;;;5074990;28;20259;-73
2022/01/16 04:04:09;;;;;;;13.50;3.97;;;30.80;57.10;;;;;;5073822;28;20241;-76
2022/01/16 04:06:37;;;;;;;15.30;4.30;;;30.70;56.60;;;;;;5074084;28;20183;-73
2022/01/16 04:09:08;;;;;;;14.38;3.53;;;30.70;56.80;;;;;;5072671;28;20283;-77
2022/01/16 04:11:37;;;;;;;12.77;4.10;;;31.30;55.60;;;;;;5076689;28;20182;-76
2022/01/16 04:14:14;;;;;;;12.93;4.03;;;31.60;55.50;;;;;;5076203;28;20199;-78
2022/01/16 04:16:41;;;;;;;14.45;4.10;;;31.60;54.90;;;;;;5076698;28;20182;-76
2022/01/16 04:19:09;;;;;;;13.00;3.92;;;31.30;55.50;;;;;;5081413;28;20215;-77
2022/01/16 04:21:36;;;;;;;15.27;4.15;;;31.50;55.50;;;;;;5073230;28;20183;-73
2022/01/16 04:24:04;;;;;;;11.98;4.05;;;31.30;55.60;;;;;;5072469;28;20186;-76
2022/01/16 04:26:31;;;;;;;19.85;5.55;;;31.60;54.80;;;;;;5072833;28;20206;-75
2022/01/16 04:28:58;;;;;;;13.93;3.90;;;31.40;55.30;;;;;;5069143;28;20191;-73
2022/01/16 04:31:26;;;;;;;13.98;4.40;;;31.70;55.20;;;;;;5066457;28;20191;-75
2022/01/16 04:33:54;;;;;;;12.57;3.72;;;31.90;55.30;;;;;;5072991;28;20186;-78
2022/01/16 04:36:21;;;;;;;18.55;4.60;;;32.70;52.90;;;;;;5073247;28;20646;-75
2022/01/16 04:38:51;;;;;;;13.80;3.88;;;32.90;51.20;;;;;;5071717;28;20730;-74
2022/01/16 04:44:04;;;;;;;11.73;3.72;;;32.30;52.40;;;;;;5073211;28;20173;-77
2022/01/16 04:46:34;;;;;;;14.18;3.50;;;32.30;52.20;;;;;;5073200;28;20179;-75
2022/01/16 04:49:03;;;;;;;10.75;3.67;;;32.30;52.10;;;;;;5065797;28;20710;-77
2022/01/16 04:51:48;;;;;;;12.23;3.55;;;32.50;51.60;;;;;;5071837;28;20183;-79
2022/01/16 04:54:16;;;;;;;17.13;4.35;;;32.50;51.80;;;;;;5068448;28;20209;-75
2022/01/16 04:56:43;;;;;;;17.45;4.25;;;32.70;52.00;;;;;;5071556;28;20190;-79
2022/01/16 04:59:11;;;;;;;13.57;3.92;;;32.30;52.90;;;;;;5072580;28;20285;-82
2022/01/16 05:01:38;;;;;;;18.75;4.45;;;32.10;53.50;;;;;;5070827;28;20198;-78
2022/01/16 05:04:08;;;;;;;13.80;4.22;;;32.30;53.10;;;;;;5072785;28;20248;-82
2022/01/16 05:06:35;;;;;;;15.60;4.10;;;31.90;54.10;;;;;;5068839;28;20179;-81
2022/01/16 05:09:04;;;;;;;17.35;4.25;;;32.70;52.50;;;;;;5069390;28;20175;-83
2022/01/16 05:11:31;;;;;;;12.05;3.70;;;32.50;52.50;;;;;;5069931;28;20645;-82
2022/01/16 05:16:38;;;;;;;15.13;4.25;;;32.80;51.50;;;;;;5072166;28;20179;-80
2022/01/16 05:19:15;;;;;;;14.70;4.00;;;32.30;52.70;;;;;;5073064;28;20641;-74
2022/01/16 05:21:43;;;;;;;13.75;3.90;;;32.50;52.30;;;;;;5071092;28;20206;-80
2022/01/16 05:24:11;;;;;;;14.45;4.13;;;32.70;51.80;;;;;;5072638;28;20187;-76
2022/01/16 05:26:44;;;;;;;13.00;4.25;;;33.20;50.40;;;;;;5071163;28;20175;-80
2022/01/16 05:29:13;;;;;;;15.82;4.82;;;33.20;50.70;;;;;;5069315;28;20178;-76
2022/01/16 05:31:50;;;;;;;13.15;4.40;;;33.40;50.10;;;;;;5067530;28;20187;-78
2022/01/16 05:34:25;;;;;;;13.80;4.60;;;33.30;50.60;;;;;;5070109;28;20205;-78
2022/01/16 05:36:53;;;;;;;15.25;4.35;;;32.90;50.90;;;;;;5074008;28;20197;-80
2022/01/16 05:39:20;;;;;;;11.98;3.90;;;33.30;50.90;;;;;;5073842;28;20322;-78
2022/01/16 05:41:48;;;;;;;14.85;4.07;;;33.30;50.50;;;;;;5073769;28;20212;-74
2022/01/16 05:44:16;;;;;;;19.73;4.20;;;32.50;52.30;;;;;;5074221;28;20187;-76
2022/01/16 05:46:44;;;;;;;20.73;4.35;;;33.00;51.50;;;;;;5072631;28;20178;-81
2022/01/16 05:49:11;;;;;;;14.43;3.72;;;33.10;51.10;;;;;;5073378;28;20191;-77
2022/01/16 05:51:38;;;;;;;16.33;4.38;;;33.20;51.50;;;;;;5079953;28;20182;-77
2022/01/16 05:54:06;;;;;;;15.15;4.28;;;33.50;50.50;;;;;;5077900;28;20187;-78
2022/01/16 05:56:33;;;;;;;13.98;4.10;;;33.20;50.70;;;;;;5072589;28;20180;-79
2022/01/16 05:59:00;;;;;;;18.13;4.38;;;32.80;51.80;;;;;;5072154;28;20211;-74
2022/01/16 06:01:28;;;;;;;16.48;4.53;;;32.80;51.80;;;;;;5072345;28;20698;-76
2022/01/16 06:03:55;;;;;;;21.73;4.80;;;32.70;52.40;;;;;;5072381;28;20581;-72
2022/01/16 06:06:23;;;;;;;15.25;4.15;;;33.50;50.90;;;;;;5072052;28;20645;-72
2022/01/16 06:08:50;;;;;;;14.68;6.28;;;34.00;49.20;;;;;;5072222;28;20240;-72
2022/01/16 06:11:17;;;;;;;21.35;7.53;;;33.80;49.90;;;;;;5069848;28;20189;-74
2022/01/16 06:13:45;;;;;;;12.98;4.63;;;34.30;49.30;;;;;;5072177;28;20652;-76
2022/01/16 06:16:12;;;;;;;13.68;3.80;;;32.90;50.70;;;;;;5071988;28;20218;-75
2022/01/16 06:18:40;;;;;;;13.38;3.50;;;31.40;53.50;;;;;;5071742;28;20284;-74
2022/01/16 06:21:07;;;;;;;18.63;4.47;;;30.30;57.60;;;;;;5071990;28;20279;-73
2022/01/16 06:23:34;;;;;;;17.52;4.40;;;29.40;60.40;;;;;;5071759;28;20179;-72
2022/01/16 06:26:02;;;;;;;13.20;4.13;;;28.80;62.30;;;;;;5072226;28;20183;-74
2022/01/16 06:28:30;;;;;;;14.48;3.85;;;28.80;63.50;;;;;;5074088;28;20185;-74
2022/01/16 06:31:02;;;;;;;14.85;4.10;;;29.60;60.80;;;;;;5072315;28;20262;-75
2022/01/16 06:33:31;;;;;;;21.15;4.38;;;30.60;58.30;;;;;;5076099;28;20186;-75
2022/01/16 06:35:58;;;;;;;13.68;3.83;;;31.80;54.70;;;;;;5076134;28;20190;-73
2022/01/16 06:38:25;;;;;;;12.80;3.47;;;32.20;53.60;;;;;;5075837;28;20230;-74
2022/01/16 06:40:53;;;;;;;18.73;3.97;;;31.40;54.40;;;;;;5075969;28;20186;-77
2022/01/16 06:43:20;;;;;;;17.80;4.30;;;31.10;56.00;;;;;;5075461;28;20654;-75
2022/01/16 06:45:48;;;;;;;13.55;4.50;;;31.30;55.90;;;;;;5075695;28;20198;-75
2022/01/16 06:48:15;;;;;;;21.58;4.15;;;31.70;54.40;;;;;;5075737;28;20613;-75
2022/01/16 06:50:42;;;;;;;13.18;3.90;;;31.60;54.70;;;;;;5074504;28;20263;-71
2022/01/16 06:53:10;;;;;;;23.38;5.00;;;31.20;56.40;;;;;;5075275;28;20244;-73
2022/01/16 06:55:37;;;;;;;15.88;4.20;;;31.90;54.70;;;;;;5075565;28;20191;-75
2022/01/16 06:58:04;;;;;;;14.50;5.30;;;31.60;55.50;;;;;;5075568;28;20210;-73
2022/01/16 07:00:32;;;;;;;25.27;5.57;;;32.30;53.60;;;;;;5075773;28;20202;-77
2022/01/16 07:02:59;;;;;;;14.35;4.28;;;33.20;51.20;;;;;;5075890;28;20536;-77
2022/01/16 07:05:27;;;;;;;16.98;4.10;;;33.30;50.40;;;;;;5077352;28;20179;-75
2022/01/16 07:07:54;;;;;;;21.90;4.50;;;32.40;52.40;;;;;;5068567;28;20180;-75
2022/01/16 07:10:23;;;;;;;18.42;4.43;;;32.50;52.70;;;;;;5072730;28;20510;-76
2022/01/16 07:12:51;;;;;;;16.33;3.80;;;32.30;53.00;;;;;;5075297;28;20179;-77
2022/01/16 07:15:18;;;;;;;13.07;4.07;;;32.00;53.40;;;;;;5075843;28;20175;-79
2022/01/16 07:17:45;;;;;;;15.30;3.72;;;32.10;53.20;;;;;;5077556;28;20191;-78
2022/01/16 07:20:15;;;;;;;23.35;4.88;;;31.20;55.70;;;;;;5075239;28;20225;-73
2022/01/16 07:22:45;;;;;;;18.15;4.63;;;31.20;55.70;;;;;;5079065;28;20171;-74
2022/01/16 07:25:13;;;;;;;17.05;4.25;;;30.40;57.50;;;;;;5083811;28;20201;-78
2022/01/16 07:27:45;;;;;;;14.48;4.80;;;30.50;57.80;;;;;;5074660;28;20179;-78
2022/01/16 07:30:12;;;;;;;19.48;4.47;;;30.80;57.10;;;;;;5068723;28;20229;-76
2022/01/16 07:32:40;;;;;;;17.98;4.28;;;31.30;55.80;;;;;;5072122;28;20222;-78
2022/01/16 07:35:07;;;;;;;15.18;4.20;;;30.30;58.50;;;;;;5067041;28;20232;-77
2022/01/16 07:37:35;;;;;;;17.52;4.38;;;29.70;60.10;;;;;;5071036;28;20305;-76
2022/01/16 07:40:04;;;;;;;17.08;4.22;;;29.50;61.80;;;;;;5070705;28;20281;-76
2022/01/16 07:42:32;;;;;;;20.08;4.70;;;29.30;61.70;;;;;;5072735;28;20254;-78
2022/01/16 07:45:00;;;;;;;20.17;4.40;;;29.20;62.80;;;;;;5073478;28;20194;-74
2022/01/16 07:47:27;;;;;;;19.23;4.97;;;28.80;63.80;;;;;;5074535;28;20179;-74
2022/01/16 07:49:54;;;;;;;17.13;4.67;;;28.80;64.30;;;;;;5074203;28;20179;-76
2022/01/16 07:52:22;;;;;;;21.00;5.20;;;28.60;65.00;;;;;;5074699;28;20179;-77
2022/01/16 07:54:49;;;;;;;17.20;4.67;;;28.50;65.40;;;;;;5073157;28;20181;-75
2022/01/16 07:57:16;;;;;;;24.57;5.30;;;28.30;66.20;;;;;;5074527;28;20654;-78
2022/01/16 07:59:44;;;;;;;22.30;4.93;;;28.00;67.40;;;;;;5073002;28;20213;-78
2022/01/16 08:02:11;;;;;;;22.60;5.07;;;27.80;68.20;;;;;;5073739;28;20172;-77
2022/01/16 08:04:38;;;;;;;19.87;5.13;;;27.80;68.20;;;;;;5073655;28;20176;-72
2022/01/16 08:07:09;;;;;;;20.97;5.00;;;27.70;68.60;;;;;;5074547;28;20540;-80
2022/01/16 08:09:40;;;;;;;21.53;5.33;;;27.60;69.50;;;;;;5073171;28;20649;-75
2022/01/16 08:12:08;;;;;;;23.20;5.23;;;27.20;70.00;;;;;;5073695;28;20539;-72
2022/01/16 08:14:36;;;;;;;23.13;5.20;;;27.30;69.70;;;;;;5073446;28;20187;-76
2022/01/16 08:17:04;;;;;;;17.87;5.27;;;27.20;70.50;;;;;;5071916;28;20187;-75
2022/01/16 08:19:32;;;;;;;20.13;5.10;;;27.10;70.80;;;;;;5063243;28;20592;-74
2022/01/16 08:22:03;;;;;;;28.87;6.37;;;27.10;70.60;;;;;;5074044;28;20270;-75
2022/01/16 08:24:30;;;;;;;20.83;5.63;;;26.90;71.50;;;;;;5072473;28;20191;-75
2022/01/16 08:26:57;;;;;;;15.97;4.90;;;26.80;71.70;;;;;;5071918;28;20168;-74
2022/01/16 08:29:25;;;;;;;19.40;4.97;;;26.70;72.00;;;;;;5068225;28;20187;-79
2022/01/16 08:31:53;;;;;;;20.63;5.37;;;26.50;72.50;;;;;;5072796;28;20201;-71
2022/01/16 08:34:20;;;;;;;17.70;4.60;;;26.50;72.80;;;;;;5072261;28;20167;-81
2022/01/16 08:36:48;;;;;;;17.10;5.23;;;26.30;73.20;;;;;;5073396;28;20254;-78
2022/01/16 08:39:15;;;;;;;20.50;6.30;;;26.30;73.60;;;;;;5073321;28;20211;-74
2022/01/16 08:41:42;;;;;;;23.67;5.87;;;26.10;73.80;;;;;;5072685;28;20175;-77
2022/01/16 08:44:10;;;;;;;26.10;5.83;;;26.00;74.20;;;;;;5074954;28;20171;-74
2022/01/16 08:46:37;;;;;;;19.00;5.33;;;26.00;74.50;;;;;;5074740;28;20175;-73
2022/01/16 08:49:04;;;;;;;19.17;5.30;;;25.90;74.50;;;;;;5073745;28;20578;-74
2022/01/16 08:51:32;;;;;;;29.93;5.60;;;25.80;74.80;;;;;;5072327;28;20257;-75
2022/01/16 08:54:00;;;;;;;22.63;5.70;;;25.80;75.00;;;;;;5071409;28;20182;-78
2022/01/16 08:56:27;;;;;;;15.53;5.70;;;25.80;75.50;;;;;;5075986;28;20240;-77
2022/01/16 08:58:55;;;;;;;22.63;6.03;;;25.70;75.90;;;;;;5087137;28;20278;-76
2022/01/16 09:01:22;;;;;;;21.10;6.43;;;25.80;75.50;;;;;;5073105;28;20187;-75
2022/01/16 09:03:49;;;;;;;19.27;6.37;;;25.80;75.90;;;;;;5073213;28;20177;-73
2022/01/16 09:06:19;;;;;;;26.03;5.27;;;25.70;76.40;;;;;;5072606;28;20171;-73
2022/01/16 09:08:46;;;;;;;23.70;5.20;;;25.60;76.60;;;;;;5065716;28;20184;-75
2022/01/16 09:11:14;;;;;;;23.73;5.57;;;25.50;77.00;;;;;;5070761;28;20206;-75
2022/01/16 09:13:41;;;;;;;20.80;4.93;;;25.30;77.50;;;;;;5069118;28;20237;-74
2022/01/16 09:16:09;;;;;;;18.50;5.60;;;25.30;77.80;;;;;;5071965;28;20179;-76
2022/01/16 09:18:36;;;;;;;23.03;5.60;;;25.30;77.90;;;;;;5071479;28;20284;-76
2022/01/16 09:21:04;;;;;;;24.33;5.87;;;25.20;78.30;;;;;;5072049;28;20266;-75
2022/01/16 09:23:31;;;;;;;23.67;4.93;;;25.20;78.30;;;;;;5072003;28;20180;-77
2022/01/16 09:25:59;;;;;;;18.73;5.47;;;25.20;78.40;;;;;;5071486;28;20641;-74
2022/01/16 09:28:26;;;;;;;21.27;6.23;;;25.20;78.50;;;;;;5070984;28;20225;-72
2022/01/16 09:30:53;;;;;;;21.20;5.23;;;25.20;78.30;;;;;;5068713;28;20179;-79
2022/01/16 09:33:21;;;;;;;20.67;5.63;;;25.10;79.10;;;;;;5073781;28;20259;-75
2022/01/16 09:35:48;;;;;;;28.20;5.90;;;25.00;79.80;;;;;;5072898;28;20250;-75
2022/01/16 09:38:17;;;;;;;28.53;6.50;;;24.90;80.20;;;;;;5073391;28;20349;-73
2022/01/16 09:40:46;;;;;;;28.50;6.27;;;24.90;80.40;;;;;;5073174;28;20187;-78
2022/01/16 09:43:17;;;;;;;23.17;5.70;;;24.80;80.60;;;;;;5074067;28;20199;-76
2022/01/16 09:45:44;;;;;;;20.90;5.63;;;24.70;81.10;;;;;;5073942;28;20187;-77
2022/01/16 09:48:12;;;;;;;22.20;4.53;;;24.60;81.50;;;;;;5073108;28;20176;-78
2022/01/16 09:50:42;;;;;;;22.80;5.80;;;24.70;81.80;;;;;;5070000;28;20186;-79
2022/01/16 09:53:10;;;;;;;23.43;5.87;;;24.60;82.20;;;;;;5071134;28;20629;-75
2022/01/16 09:55:37;;;;;;;29.57;5.90;;;24.60;82.20;;;;;;5072920;28;20179;-80
2022/01/16 09:58:04;;;;;;;22.13;5.73;;;24.60;82.30;;;;;;5073206;28;20176;-77
2022/01/16 10:00:32;;;;;;;29.30;6.20;;;24.60;82.50;;;;;;5072910;28;20207;-85
2022/01/16 10:02:59;;;;;;;20.20;5.33;;;24.60;82.50;;;;;;5072799;28;20179;-81
2022/01/16 10:05:27;;;;;;;27.77;6.13;;;24.50;82.90;;;;;;5073552;28;20183;-81
2022/01/16 10:07:55;;;;;;;29.33;6.50;;;24.50;83.10;;;;;;5076123;28;20209;-83
2022/01/16 10:10:29;;;;;;;24.57;5.87;;;24.30;83.30;;;;;;5074181;28;20634;-81
2022/01/16 10:13:03;;;;;;;27.63;6.10;;;24.30;83.70;;;;;;5075404;28;20183;-81
2022/01/16 10:15:31;;;;;;;24.17;5.90;;;24.30;84.10;;;;;;5078548;28;20205;-82
2022/01/16 10:18:00;;;;;;;30.40;7.00;;;24.40;84.20;;;;;;5077826;28;20210;-80
2022/01/16 10:20:39;;;;;;;27.30;5.60;;;24.30;84.00;;;;;;5071660;28;20214;-79
2022/01/16 10:23:17;;;;;;;27.07;5.97;;;24.30;84.20;;;;;;5078074;28;20218;-80
2022/01/16 10:25:48;;;;;;;25.53;5.90;;;24.30;84.40;;;;;;5078411;28;20179;-81
2022/01/16 10:28:24;;;;;;;24.63;5.97;;;24.30;84.10;;;;;;5076751;28;20183;-75
2022/01/16 10:30:59;;;;;;;28.20;6.10;;;24.30;84.60;;;;;;5084625;28;20201;-79
2022/01/16 10:33:32;;;;;;;27.37;5.80;;;24.30;84.70;;;;;;5074288;28;20205;-82
2022/01/16 10:36:00;;;;;;;32.67;6.17;;;24.30;84.40;;;;;;5067512;28;20242;-80
2022/01/16 10:38:30;;;;;;;26.83;6.13;;;24.30;84.60;;;;;;5071953;28;20219;-76
2022/01/16 10:40:59;;;;;;;23.20;5.73;;;24.30;84.80;;;;;;5066913;28;20527;-77
2022/01/16 10:43:45;;;;;;;27.80;6.13;;;24.20;85.10;;;;;;5072005;28;20216;-82
2022/01/16 10:46:15;;;;;;;27.73;6.37;;;24.20;85.40;;;;;;5069583;28;20538;-80
2022/01/16 10:48:42;;;;;;;22.53;7.13;;;24.20;85.10;;;;;;5071497;28;20657;-78
2022/01/16 10:51:22;;;;;;;28.70;9.20;;;24.10;85.30;;;;;;5071526;28;20210;-79
2022/01/16 10:53:49;;;;;;;27.90;6.70;;;24.20;85.20;;;;;;5072530;28;20187;-81
2022/01/16 10:56:25;;;;;;;28.60;6.57;;;24.10;85.40;;;;;;5072120;28;20258;-78
2022/01/16 10:58:56;;;;;;;22.43;6.20;;;24.10;85.50;;;;;;5069807;28;20203;-80
2022/01/16 11:01:23;;;;;;;29.70;6.47;;;24.10;85.40;;;;;;5072072;28;20171;-74
2022/01/16 11:03:53;;;;;;;37.93;7.47;;;24.10;85.30;;;;;;5069044;28;20215;-77
2022/01/16 11:06:27;;;;;;;23.63;6.10;;;24.20;85.50;;;;;;5073848;28;20535;-77
2022/01/16 11:09:02;;;;;;;23.33;5.97;;;24.30;85.30;;;;;;5065289;28;20184;-75
2022/01/16 11:11:32;;;;;;;26.23;5.67;;;24.30;84.80;;;;;;5072597;28;20179;-79
2022/01/16 11:14:04;;;;;;;22.50;5.30;;;24.30;84.60;;;;;;5073020;28;20182;-77
2022/01/16 11:16:32;;;;;;;23.90;6.43;;;24.30;84.60;;;;;;5076164;28;20545;-76
2022/01/16 11:19:02;;;;;;;26.13;5.47;;;24.30;84.70;;;;;;5076000;28;20557;-75
2022/01/16 11:21:34;;;;;;;19.53;5.43;;;24.30;84.80;;;;;;5075544;28;20180;-75
2022/01/16 11:24:26;;;;;;;25.47;5.67;;;24.30;84.80;;;;;;5076630;28;20569;-80
2022/01/16 11:26:54;;;;;;;22.40;5.70;;;24.30;84.90;;;;;;5075095;28;20175;-77
2022/01/16 11:29:21;;;;;;;28.33;5.70;;;24.30;84.60;;;;;;5075103;28;20174;-78
2022/01/16 11:31:49;;;;;;;26.33;5.90;;;24.40;84.70;;;;;;5075711;28;20171;-78
2022/01/16 11:34:16;;;;;;;26.67;5.70;;;24.40;84.30;;;;;;5075742;28;20202;-76
2022/01/16 11:36:45;;;;;;;30.50;6.10;;;24.40;84.30;;;;;;5075700;28;20175;-76
2022/01/16 11:39:13;;;;;;;22.73;5.80;;;24.30;84.30;;;;;;5075244;28;20223;-76
2022/01/16 11:41:54;;;;;;;23.73;5.90;;;24.30;84.50;;;;;;5076155;28;20570;-75
2022/01/16 11:44:31;;;;;;;26.83;5.47;;;24.40;84.30;;;;;;5074104;28;20645;-76
2022/01/16 11:47:03;;;;;;;19.73;5.90;;;24.50;84.30;;;;;;5077599;28;20174;-76
2022/01/16 11:49:33;;;;;;;29.83;6.33;;;24.50;84.00;;;;;;5075470;28;20190;-76
2022/01/16 11:52:12;;;;;;;25.13;5.97;;;24.50;84.10;;;;;;5075251;28;20209;-78
2022/01/16 11:54:42;;;;;;;30.03;6.13;;;24.40;84.20;;;;;;5077557;28;20641;-75
2022/01/16 11:57:28;;;;;;;26.47;5.50;;;24.40;84.20;;;;;;5077046;28;20194;-75
2022/01/16 12:00:10;;;;;;;22.33;5.80;;;24.40;84.20;;;;;;5075080;28;20215;-76
2022/01/16 12:02:44;;;;;;;25.37;5.77;;;24.40;84.10;;;;;;5083850;28;20266;-75
2022/01/16 12:05:20;;;;;;;23.60;5.73;;;24.40;84.40;;;;;;5081354;28;20205;-77
2022/01/16 12:07:49;;;;;;;22.57;4.93;;;24.40;84.20;;;;;;5068186;28;20167;-77
2022/01/16 12:10:40;;;;;;;24.50;5.53;;;24.40;84.00;;;;;;5073844;28;20214;-78
2022/01/16 12:13:27;;;;;;;24.77;5.60;;;24.50;83.70;;;;;;5071483;28;20167;-77
2022/01/16 12:16:34;;;;;;;23.20;5.57;;;24.50;83.70;;;;;;5073563;28;20187;-78
2022/01/16 12:19:33;;;;;;;27.50;6.43;;;24.50;83.60;;;;;;5074677;28;20240;-78
2022/01/16 12:22:01;;;;;;;22.30;5.40;;;24.50;83.70;;;;;;5075114;28;20190;-78
2022/01/16 12:24:44;;;;;;;24.63;5.30;;;24.30;84.00;;;;;;5076284;28;20186;-76
2022/01/16 12:27:39;;;;;;;30.97;5.50;;;24.30;84.10;;;;;;5074222;28;20186;-77
2022/01/16 12:30:16;;;;;;;23.00;5.20;;;24.30;84.30;;;;;;5071828;28;20180;-81
2022/01/16 12:33:20;;;;;;;21.60;5.13;;;24.30;84.20;;;;;;5084707;28;20193;-75
2022/01/16 12:35:50;;;;;;;28.17;5.53;;;24.30;84.20;;;;;;5084142;28;20179;-78
2022/01/16 12:38:19;;;;;;;29.93;5.27;;;24.20;84.30;;;;;;5085326;28;20222;-77
2022/01/16 12:41:04;;;;;;;24.80;5.30;;;24.30;84.20;;;;;;5082157;28;20183;-76
2022/01/16 12:43:33;;;;;;;29.47;6.33;;;24.30;84.00;;;;;;5084891;28;20925;-78
2022/01/16 12:46:02;;;;;;;32.47;5.97;;;24.30;84.10;;;;;;5086850;28;20235;-78
2022/01/16 12:48:29;;;;;;;22.43;5.53;;;24.30;84.10;;;;;;5085578;28;20533;-77
2022/01/16 12:51:02;;;;;;;20.97;6.37;;;24.30;84.10;;;;;;5078976;28;20182;-76
2022/01/16 12:53:45;;;;;;;23.57;5.50;;;24.30;83.80;;;;;;5074342;28;20711;-77
2022/01/16 12:56:34;;;;;;;26.00;5.70;;;24.30;83.80;;;;;;5070190;28;20186;-80
2022/01/16 12:59:21;;;;;;;29.90;6.27;;;24.30;83.70;;;;;;5091808;28;20208;-79
2022/01/16 13:02:02;;;;;;;22.27;5.70;;;24.30;83.90;;;;;;5073483;28;20192;-77
2022/01/16 13:04:42;;;;;;;26.33;5.90;;;24.30;83.60;;;;;;5073456;28;20190;-79
2022/01/16 13:07:12;;;;;;;27.90;5.70;;;24.40;83.50;;;;;;5074126;28;20304;-77
2022/01/16 13:09:40;;;;;;;22.43;5.80;;;24.30;83.30;;;;;;5068550;28;20179;-79
2022/01/16 13:12:12;;;;;;;22.20;6.60;;;24.40;83.40;;;;;;5075799;28;20175;-81
2022/01/16 13:14:43;;;;;;;26.57;6.17;;;24.30;83.40;;;;;;5073763;28;20176;-79
2022/01/16 13:17:12;;;;;;;25.33;6.60;;;24.30;83.60;;;;;;5073766;28;20262;-77
2022/01/16 13:19:56;;;;;;;18.93;5.60;;;24.30;83.60;;;;;;5070766;28;20223;-77
2022/01/16 13:22:27;;;;;;;25.40;5.80;;;24.30;83.60;;;;;;5072458;28;20300;-77
2022/01/16 13:25:02;;;;;;;23.83;6.57;;;24.30;83.60;;;;;;5073484;28;20183;-75
2022/01/16 13:27:35;;;;;;;20.77;5.60;;;24.20;83.80;;;;;;5073489;28;20182;-81
2022/01/16 13:30:05;;;;;;;24.90;5.83;;;24.30;83.70;;;;;;5073278;28;20178;-79
2022/01/16 13:32:38;;;;;;;26.50;6.13;;;24.20;83.70;;;;;;5076755;28;20187;-78
2022/01/16 13:35:29;;;;;;;28.17;6.50;;;24.30;83.60;;;;;;5075454;28;20174;-76
2022/01/16 13:38:08;;;;;;;27.83;6.50;;;24.20;83.70;;;;;;5079596;28;20285;-77